TAP1040 LPPT-LPPT
Flight info
| Callsign | TAP1040 |
|---|---|
| Flight time | 0h 12m |
| Altitude | 36000 |
| Route | PESEX |
| Aircraft | A319/M-SDE3FGHIRWY/LB1 |
Departure
| Time | 2026-05-07 22:05 |
|---|---|
| Airport | Lisbon Humberto Delgado Airport (LPPT) |
Arrival
| Time | 2026-05-07 22:17 |
|---|---|
| Airport | Lisbon Humberto Delgado Airport (LPPT) |
| Time | Latitude | Longitude | Altitude | Speed | Heading |
|---|---|---|---|---|---|
| 2026-05-07 22:05 | 38.83789 | -9.06434 | 1714 ft | 160 kts | 112° |
| 2026-05-07 22:05 | 38.83117 | -9.05292 | 1939 ft | 164 kts | 145° |
| 2026-05-07 22:05 | 38.82069 | -9.04753 | 2185 ft | 165 kts | 176° |
| 2026-05-07 22:05 | 38.80925 | -9.04659 | 2435 ft | 165 kts | 180° |
| 2026-05-07 22:06 | 38.79776 | -9.04597 | 2669 ft | 166 kts | 180° |
| 2026-05-07 22:06 | 38.78623 | -9.04520 | 2916 ft | 167 kts | 180° |
| 2026-05-07 22:06 | 38.77420 | -9.04446 | 3001 ft | 180 kts | 180° |
| 2026-05-07 22:06 | 38.76106 | -9.04360 | 3014 ft | 198 kts | 180° |
| 2026-05-07 22:07 | 38.74675 | -9.04255 | 3011 ft | 214 kts | 179° |
| 2026-05-07 22:07 | 38.73127 | -9.04304 | 2990 ft | 232 kts | 194° |
| 2026-05-07 22:07 | 38.71555 | -9.04829 | 3002 ft | 229 kts | 199° |
| 2026-05-07 22:07 | 38.70046 | -9.05391 | 3001 ft | 225 kts | 200° |
| 2026-05-07 22:08 | 38.68550 | -9.05975 | 3000 ft | 224 kts | 202° |
| 2026-05-07 22:08 | 38.67126 | -9.06771 | 3014 ft | 223 kts | 209° |
| 2026-05-07 22:08 | 38.65736 | -9.07659 | 3019 ft | 223 kts | 210° |
| 2026-05-07 22:08 | 38.64349 | -9.08560 | 3026 ft | 224 kts | 210° |
| 2026-05-07 22:09 | 38.62963 | -9.09459 | 3021 ft | 222 kts | 210° |
| 2026-05-07 22:09 | 38.61587 | -9.10341 | 3026 ft | 220 kts | 210° |
| 2026-05-07 22:09 | 38.60222 | -9.11227 | 3028 ft | 223 kts | 210° |
| 2026-05-07 22:09 | 38.58807 | -9.12170 | 3027 ft | 234 kts | 211° |
| 2026-05-07 22:10 | 38.57357 | -9.13124 | 3017 ft | 231 kts | 210° |
| 2026-05-07 22:10 | 38.55956 | -9.14008 | 3023 ft | 221 kts | 209° |
| 2026-05-07 22:10 | 38.54601 | -9.14865 | 3023 ft | 220 kts | 209° |
| 2026-05-07 22:10 | 38.53422 | -9.16046 | 3024 ft | 215 kts | 238° |
| 2026-05-07 22:11 | 38.52983 | -9.17821 | 3023 ft | 211 kts | 274° |
| 2026-05-07 22:11 | 38.53444 | -9.19559 | 3026 ft | 210 kts | 308° |
| 2026-05-07 22:11 | 38.54576 | -9.20725 | 3021 ft | 212 kts | 337° |
| 2026-05-07 22:11 | 38.56010 | -9.21034 | 3023 ft | 205 kts | 359° |
| 2026-05-07 22:12 | 38.57398 | -9.21040 | 3020 ft | 195 kts | 358° |
| 2026-05-07 22:12 | 38.58743 | -9.21053 | 3023 ft | 192 kts | 358° |
| 2026-05-07 22:12 | 38.60077 | -9.21069 | 3023 ft | 192 kts | 358° |
| 2026-05-07 22:12 | 38.61410 | -9.21088 | 3018 ft | 191 kts | 358° |
| 2026-05-07 22:13 | 38.62738 | -9.21107 | 3026 ft | 188 kts | 358° |
| 2026-05-07 22:13 | 38.63986 | -9.21065 | 3021 ft | 176 kts | 8° |
| 2026-05-07 22:13 | 38.65127 | -9.20540 | 2821 ft | 173 kts | 21° |
| 2026-05-07 22:13 | 38.66231 | -9.19948 | 2591 ft | 171 kts | 21° |
| 2026-05-07 22:14 | 38.67327 | -9.19363 | 2355 ft | 170 kts | 20° |
| 2026-05-07 22:14 | 38.68418 | -9.18781 | 2120 ft | 168 kts | 21° |
| 2026-05-07 22:14 | 38.69470 | -9.18219 | 1897 ft | 159 kts | 21° |
| 2026-05-07 22:14 | 38.70465 | -9.17688 | 1692 ft | 151 kts | 20° |
| 2026-05-07 22:15 | 38.71406 | -9.17186 | 1481 ft | 143 kts | 19° |
| 2026-05-07 22:15 | 38.72310 | -9.16704 | 1290 ft | 140 kts | 21° |
| 2026-05-07 22:15 | 38.73203 | -9.16229 | 1103 ft | 139 kts | 20° |
| 2026-05-07 22:15 | 38.74099 | -9.15749 | 919 ft | 139 kts | 20° |
| 2026-05-07 22:16 | 38.74996 | -9.15271 | 738 ft | 140 kts | 20° |
| 2026-05-07 22:16 | 38.75890 | -9.14796 | 559 ft | 140 kts | 19° |
| 2026-05-07 22:16 | 38.76780 | -9.14317 | 355 ft | 136 kts | 20° |
| 2026-05-07 22:16 | 38.77555 | -9.13901 | 364 ft | 103 kts | 22° |
| 2026-05-07 22:17 | 38.78057 | -9.13632 | 367 ft | 55 kts | 22° |
| 2026-05-07 22:17 | 38.78249 | -9.13508 | 367 ft | 22 kts | 38° |
| 2026-05-07 22:17 | 38.78342 | -9.13392 | 364 ft | 13 kts | 48° |
| 2026-05-07 22:17 | 38.78376 | -9.13339 | 362 ft | 8 kts | 59° |
| 2026-05-07 22:18 | 38.78361 | -9.13275 | 362 ft | 7 kts | 139° |
| 2026-05-07 22:18 | 38.78237 | -9.13308 | 361 ft | 11 kts | 203° |
| 2026-05-07 22:18 | 38.78163 | -9.13347 | 362 ft | 12 kts | 202° |
| 2026-05-07 22:19 | 38.78084 | -9.13389 | 359 ft | 13 kts | 202° |
| 2026-05-07 22:19 | 38.77995 | -9.13409 | 356 ft | 15 kts | 168° |
| 2026-05-07 22:19 | 38.77878 | -9.13377 | 349 ft | 19 kts | 168° |
| 2026-05-07 22:19 | 38.77762 | -9.13345 | 343 ft | 12 kts | 167° |
| 2026-05-07 22:20 | 38.77743 | -9.13245 | 335 ft | 15 kts | 77° |
| 2026-05-07 22:20 | 38.77765 | -9.13118 | 337 ft | 12 kts | 78° |
| 2026-05-07 22:20 | 38.77794 | -9.13016 | 330 ft | 15 kts | 54° |
| 2026-05-07 22:20 | 38.77860 | -9.12954 | 330 ft | 11 kts | 33° |
| 2026-05-07 22:21 | 38.77898 | -9.12940 | 331 ft | 4 kts | 336° |
| 2026-05-07 22:21 | 38.77921 | -9.12968 | 328 ft | 3 kts | 319° |
| 2026-05-07 22:21 | 38.77936 | -9.12984 | 327 ft | 2 kts | 320° |
| 2026-05-07 22:21 | 38.77943 | -9.12992 | 331 ft | 0 kts | 319° |